CheckWX is a tool to help pilots better visualize weather data.  It is not intended as a substitute for an official pre-flight weather briefing.

08:12:04 UTC

KCNU METAR
Chanute Martin Johnson Airport
Chanute, Kansas, USA
Current

20 mins ago

KCNU 220752Z AUTO 10008KT 10SM OVC050 03/M03 A3016 RMK AO2 SLP217 T00281033
Observed
Feb-22 @ 07:52 UTC
Wind
  • 100° at 8 KTS
Visibility
10 SM
Flight Rules
VFR
Cloud Levels
  • Overcast at 5,000' AGL
Temperature
C / 37°F
Dewpoint
-3°C / 27°F
Humidity
65%
Altimeter
30.16" Hg
Pressure
1021.7 hPa
Previous

1 hour ago

KCNU 220652Z AUTO 09009KT 10SM CLR 02/M04 A3015 RMK AO2 SLP213 T00221039
Observed
Feb-22 @ 06:52 UTC
Wind
  • 090° at 9 KTS
Visibility
10 SM
Flight Rules
VFR
Cloud Levels
  • Clear skies
Temperature
C / 36°F
Dewpoint
-4°C / 25°F
Humidity
65%
Altimeter
30.15" Hg
Pressure
1021.3 hPa
Previous

2 hours ago

KCNU 220552Z AUTO 09008KT 10SM CLR 02/M03 A3015 RMK AO2 SLP215 T00221033 10067 20017 400941044 52009
Observed
Feb-22 @ 05:52 UTC
Wind
  • 090° at 8 KTS
Visibility
10 SM
Flight Rules
VFR
Cloud Levels
  • Clear skies
Temperature
C / 36°F
Dewpoint
-3°C / 27°F
Humidity
70%
Altimeter
30.15" Hg
Pressure
1021.5 hPa